IST,Max TemperatureF,Mean TemperatureF,Min TemperatureF,Max Dew PointF,MeanDew PointF,Min DewpointF,Max Humidity, Mean Humidity, Min Humidity, Max Sea Level PressureIn, Mean Sea Level PressureIn, Min Sea Level PressureIn, Max VisibilityMiles, Mean VisibilityMiles, Min VisibilityMiles, Max Wind SpeedMPH, Mean Wind SpeedMPH, Max Gust SpeedMPH,PrecipitationIn, CloudCover, Events, WindDirDegrees
2013-4-1,39,37,35,28,27,25,75,65,48,29.92,29.87,29.83,6,6,6,22,18,30,0.00,5,,106
2013-4-2,44,38,31,32,28,25,80,66,47,30.12,30.04,29.95,19,7,6,20,14,,0.00,4,,87
2013-4-3,45,37,29,32,29,23,93,69,36,30.23,30.18,30.15,19,7,6,20,13,,0.00,2,,67
2013-4-4,45,35,25,32,28,25,96,72,47,30.23,30.18,30.15,6,6,6,21,12,,0.00,2,,36
2013-4-5,44,36,28,36,30,25,93,74,45,30.27,30.21,30.15,19,6,3,20,9,,0.01,4,Rain,17
2013-4-6,47,34,21,34,28,21,100,74,46,30.33,30.27,30.21,19,7,6,16,6,,0.00,4,,193
2013-4-7,45,36,27,36,32,25,93,77,59,30.22,30.02,29.80,19,7,5,21,9,,0.00,5,,122
2013-4-8,46,40,34,36,33,30,93,73,54,29.81,29.64,29.50,11,6,5,26,16,,0.00,6,,86
2013-4-9,44,40,35,36,34,32,93,80,67,29.59,29.52,29.47,9,5,3,24,19,37,0.00,5,,75
2013-4-10,46,40,34,45,39,34,100,90,75,29.64,29.56,29.47,6,3,1,15,9,,0.02,6,Rain,98
2013-4-11,47,42,38,45,42,37,100,95,87,29.46,29.34,29.27,6,3,1,17,9,,0.47,6,Rain,122
2013-4-12,52,45,38,43,41,37,100,86,66,29.68,29.44,29.27,16,6,1,18,7,,0.00,5,Rain,301
2013-4-13,55,42,32,52,43,32,100,94,81,29.70,29.57,29.42,12,4,0,23,10,31,0.04,5,Fog-Rain,123
2013-4-14,57,52,47,51,47,41,93,77,62,29.53,29.45,29.39,16,7,6,31,18,47,0.03,5,Rain,191
2013-4-15,60,54,48,46,43,37,93,69,39,29.80,29.68,29.50,16,6,6,26,20,41,0.01,4,Rain,195
2013-4-16,57,52,46,45,36,28,76,56,26,29.92,29.69,29.47,16,7,6,34,24,54,0.00,3,Rain,227
2013-4-17,58,52,45,52,45,35,94,77,53,29.89,29.49,29.18,12,6,3,43,17,62,0.02,6,Rain,180
2013-4-18,52,47,42,45,41,39,93,79,54,30.06,29.67,29.24,19,7,6,40,30,58,0.03,5,Rain,252
2013-4-19,56,46,37,41,38,34,93,75,44,30.45,30.32,30.09,6,6,6,20,12,,0.00,2,,252
2013-4-20,56,46,35,41,38,34,93,70,41,30.48,30.37,30.21,6,6,6,17,8,,0.00,4,,219
2013-4-21,55,48,42,43,40,36,93,74,48,30.21,30.02,29.95,12,6,6,22,14,32,0.08,5,Rain,234
2013-4-22,61,52,42,50,44,37,93,80,57,29.97,29.87,29.80,19,7,4,29,16,36,0.00,5,Rain,236
2013-4-23,61,53,45,48,45,42,93,75,48,30.12,30.05,29.95,19,7,6,22,17,,0.00,4,,246
2013-4-24,57,50,44,52,48,43,100,85,64,30.26,30.13,30.01,19,6,2,22,13,33,0.08,6,Rain,210
2013-4-25,55,48,41,45,41,36,100,83,60,30.23,30.14,30.09,7,5,1,21,9,30,0.12,5,Rain,315
2013-4-26,49,42,35,39,34,28,93,73,40,30.18,30.09,30.04,6,6,6,25,14,34,0.00,4,Rain,286
2013-4-27,51,43,35,39,35,32,93,71,48,30.19,30.12,30.06,19,6,6,16,12,,0.00,4,,354
2013-4-28,54,48,41,46,39,34,93,75,52,30.12,29.92,29.83,19,6,4,23,15,41,0.03,5,Rain,258
2013-4-29,55,46,38,41,36,29,87,70,30,30.24,30.02,29.89,19,7,6,26,19,32,0.00,2,Rain,273
2013-4-30,52,42,32,39,35,32,100,73,46,30.36,30.30,30.24,6,6,6,13,9,25,0.00,3,,256